Time;durP1;ratioP1;P1;durP2;ratioP2;P2;SDS_P1;SDS_P2;PMS_P1;PMS_P2;Temp;Humidity;BMP_temperature;BMP_pressure;BME280_temperature;BME280_humidity;BME280_pressure;Samples;Min_cycle;Max_cycle;Signal;HPM_P1;HPM_P2
2023/07/14 05:49:51;;;;;;;5.63;3.65;;;;;;;;;;10514534;28;20966;-85
2023/07/14 06:00:44;;;;;;;4.95;2.40;;;;;;;;;;10515245;28;20096;-84
2023/07/14 06:06:04;;;;;;;4.30;2.40;;;;;;;;;;10534634;28;20128;-84
2023/07/14 06:11:09;;;;;;;5.60;3.17;;;;;;;;;;10526459;28;20046;-84
2023/07/14 06:16:39;;;;;;;6.55;3.00;;;;;;;;;;10515741;28;20429;-84
2023/07/14 06:21:45;;;;;;;6.07;2.72;;;;;;;;;;10504612;28;20031;-84
2023/07/14 06:26:46;;;;;;;6.55;2.95;;;;;;;;;;10495604;28;20078;-85
2023/07/14 06:31:47;;;;;;;3.95;2.47;;;;;;;;;;10498094;28;20071;-85
2023/07/14 06:36:48;;;;;;;7.38;2.97;;;;;;;;;;10502368;28;20366;-84
2023/07/14 06:41:49;;;;;;;3.85;2.55;;;;;;;;;;10516705;28;20029;-85
2023/07/14 06:46:51;;;;;;;3.92;2.58;;;;;;;;;;10509355;28;20036;-84
2023/07/14 06:52:04;;;;;;;5.60;2.67;;;;;;;;;;10504409;28;20028;-85
2023/07/14 06:57:09;;;;;;;4.25;2.92;;;;;;;;;;10508566;28;20036;-85
2023/07/14 07:02:11;;;;;;;2.30;1.83;;;;;;;;;;10481560;28;20040;-82
2023/07/14 07:07:13;;;;;;;2.58;2.00;;;;;;;;;;10475314;28;20479;-81
2023/07/14 07:12:14;;;;;;;6.35;2.63;;;;;;;;;;10478822;28;20035;-83
2023/07/14 07:17:15;;;;;;;5.45;2.20;;;;;;;;;;10472569;28;20025;-84
2023/07/14 07:22:16;;;;;;;5.97;3.17;;;;;;;;;;10468180;28;20029;-84
2023/07/14 07:27:17;;;;;;;4.60;2.30;;;;;;;;;;10465782;28;20025;-85
2023/07/14 07:32:18;;;;;;;5.82;2.47;;;;;;;;;;10467801;28;20021;-83
2023/07/14 07:37:20;;;;;;;4.60;2.30;;;;;;;;;;10471765;28;20021;-83
2023/07/14 07:42:21;;;;;;;3.83;2.00;;;;;;;;;;10476870;28;20092;-83
2023/07/14 07:47:22;;;;;;;4.78;2.50;;;;;;;;;;10477088;28;20037;-84
2023/07/14 07:52:23;;;;;;;4.57;2.20;;;;;;;;;;10483885;28;20033;-83
2023/07/14 07:57:30;;;;;;;4.13;2.40;;;;;;;;;;10472771;28;20029;-87
2023/07/14 08:02:35;;;;;;;4.10;2.35;;;;;;;;;;10467078;28;20029;-86
2023/07/14 08:08:16;;;;;;;5.43;3.17;;;;;;;;;;10485099;28;20033;-85
2023/07/14 08:13:25;;;;;;;4.13;2.60;;;;;;;;;;10482159;28;20059;-85
2023/07/14 08:18:42;;;;;;;5.20;2.78;;;;;;;;;;10481663;28;20020;-84
2023/07/14 08:23:45;;;;;;;3.38;2.88;;;;;;;;;;10500339;28;20021;-84
2023/07/14 08:28:49;;;;;;;5.13;2.70;;;;;;;;;;10473099;28;20109;-84
2023/07/14 08:33:51;;;;;;;7.05;3.35;;;;;;;;;;10470373;28;20025;-85
2023/07/14 08:38:55;;;;;;;4.70;3.33;;;;;;;;;;10472039;28;20406;-85
2023/07/14 08:44:17;;;;;;;5.35;2.50;;;;;;;;;;10472081;28;20021;-85
2023/07/14 08:49:44;;;;;;;4.32;2.78;;;;;;;;;;10469425;28;20037;-86
2023/07/14 09:00:50;;;;;;;3.35;2.40;;;;;;;;;;10450859;28;20060;-84
2023/07/14 09:05:57;;;;;;;6.68;2.22;;;;;;;;;;10467680;28;20479;-85
2023/07/14 09:11:03;;;;;;;4.38;2.30;;;;;;;;;;10468025;28;20039;-86
2023/07/14 09:16:23;;;;;;;8.05;5.72;;;;;;;;;;10465523;28;20025;-85
2023/07/14 09:21:39;;;;;;;4.80;2.75;;;;;;;;;;10467444;28;20493;-86
2023/07/14 09:26:51;;;;;;;3.58;2.45;;;;;;;;;;10466837;28;20055;-86
2023/07/14 09:31:57;;;;;;;3.63;2.20;;;;;;;;;;10462340;28;20029;-86
2023/07/14 09:37:00;;;;;;;4.38;2.00;;;;;;;;;;10463120;28;20075;-86
2023/07/14 09:42:26;;;;;;;4.55;2.50;;;;;;;;;;10472872;28;20039;-85
2023/07/14 09:47:31;;;;;;;3.55;2.50;;;;;;;;;;10465408;28;20028;-85
2023/07/14 09:52:40;;;;;;;3.83;2.58;;;;;;;;;;10468598;28;20049;-85
2023/07/14 09:57:42;;;;;;;3.83;2.33;;;;;;;;;;10475135;28;20022;-84
2023/07/14 10:02:46;;;;;;;4.22;3.80;;;;;;;;;;10471876;28;20025;-86
2023/07/14 10:07:47;;;;;;;4.55;3.25;;;;;;;;;;10472595;28;20044;-83
2023/07/14 10:12:49;;;;;;;3.17;2.13;;;;;;;;;;10476354;28;20024;-83
2023/07/14 10:17:56;;;;;;;3.47;2.30;;;;;;;;;;10489141;28;20045;-83
2023/07/14 10:22:58;;;;;;;4.20;2.30;;;;;;;;;;10467978;28;20056;-84
2023/07/14 10:28:04;;;;;;;4.07;2.50;;;;;;;;;;10470718;28;20033;-83
2023/07/14 10:33:06;;;;;;;5.22;3.25;;;;;;;;;;10474215;28;20025;-84
2023/07/14 10:38:16;;;;;;;4.72;2.78;;;;;;;;;;10478492;28;20140;-84
2023/07/14 10:43:26;;;;;;;4.90;3.70;;;;;;;;;;10478177;28;20039;-84
2023/07/14 10:48:30;;;;;;;3.75;2.83;;;;;;;;;;10477559;28;20115;-83
2023/07/14 10:53:42;;;;;;;5.32;2.75;;;;;;;;;;10501638;28;20037;-84
2023/07/14 10:58:47;;;;;;;5.50;2.83;;;;;;;;;;10477712;28;20032;-84
2023/07/14 11:03:54;;;;;;;3.88;2.47;;;;;;;;;;10471731;28;20020;-80
2023/07/14 11:08:56;;;;;;;3.97;2.42;;;;;;;;;;10474694;28;20088;-81
2023/07/14 11:14:16;;;;;;;3.92;2.45;;;;;;;;;;10470126;28;20025;-82
2023/07/14 11:19:26;;;;;;;5.50;2.60;;;;;;;;;;10469313;28;20361;-82
2023/07/14 11:24:32;;;;;;;4.97;3.05;;;;;;;;;;10466726;28;20025;-83
2023/07/14 11:29:48;;;;;;;5.20;3.95;;;;;;;;;;10468655;28;20372;-82
2023/07/14 11:35:02;;;;;;;7.57;3.78;;;;;;;;;;10469192;28;20025;-85
2023/07/14 11:40:08;;;;;;;5.32;3.28;;;;;;;;;;10470281;28;20057;-85
2023/07/14 11:45:16;;;;;;;5.55;3.75;;;;;;;;;;10475090;28;20033;-86
2023/07/14 11:50:17;;;;;;;5.25;3.22;;;;;;;;;;10507627;28;20075;-85
2023/07/14 11:55:18;;;;;;;5.15;3.30;;;;;;;;;;10482030;28;20442;-86
2023/07/14 12:00:24;;;;;;;5.50;3.58;;;;;;;;;;10478252;28;20497;-90
2023/07/14 12:05:31;;;;;;;5.15;3.00;;;;;;;;;;10468882;28;20028;-87
2023/07/14 12:10:38;;;;;;;5.03;2.80;;;;;;;;;;10483033;28;20040;-90
2023/07/14 12:16:03;;;;;;;5.55;3.35;;;;;;;;;;10496461;28;20029;-88
2023/07/14 12:21:17;;;;;;;5.25;2.80;;;;;;;;;;10467106;28;20116;-89
2023/07/14 12:26:19;;;;;;;5.40;3.05;;;;;;;;;;10464606;28;20033;-86
2023/07/14 12:31:20;;;;;;;6.68;3.30;;;;;;;;;;10474276;28;20029;-87
2023/07/14 12:36:22;;;;;;;3.45;2.55;;;;;;;;;;10464899;28;20094;-88
2023/07/14 12:41:24;;;;;;;5.22;2.78;;;;;;;;;;10464173;28;20036;-86
2023/07/14 12:46:31;;;;;;;8.55;6.72;;;;;;;;;;10460899;28;20495;-86
2023/07/14 12:51:36;;;;;;;5.25;4.03;;;;;;;;;;10462528;28;20035;-87
2023/07/14 12:56:37;;;;;;;6.70;3.83;;;;;;;;;;10462087;28;20123;-89
2023/07/14 13:01:39;;;;;;;6.70;3.50;;;;;;;;;;10479008;28;20029;-87
2023/07/14 13:06:42;;;;;;;4.82;3.05;;;;;;;;;;10465451;28;20021;-87
2023/07/14 13:11:43;;;;;;;3.63;2.63;;;;;;;;;;10463997;28;20033;-89
2023/07/14 13:16:44;;;;;;;4.40;3.00;;;;;;;;;;10461666;28;20134;-89
2023/07/14 13:21:48;;;;;;;5.70;2.88;;;;;;;;;;10466007;28;20027;-89
2023/07/14 13:27:00;;;;;;;4.90;3.08;;;;;;;;;;10476472;28;20175;-86
2023/07/14 13:32:21;;;;;;;4.18;2.65;;;;;;;;;;10491985;28;20051;-89
2023/07/14 13:37:23;;;;;;;4.93;3.38;;;;;;;;;;10480645;28;20029;-90
2023/07/14 13:42:24;;;;;;;5.20;3.45;;;;;;;;;;10462974;28;20021;-89
2023/07/14 13:47:29;;;;;;;4.78;4.13;;;;;;;;;;10462809;28;20116;-89
2023/07/14 13:52:31;;;;;;;4.57;2.50;;;;;;;;;;10463296;28;20017;-87
2023/07/14 13:57:32;;;;;;;4.25;3.00;;;;;;;;;;10463915;28;20028;-87
2023/07/14 14:02:33;;;;;;;6.25;3.60;;;;;;;;;;10462441;28;20044;-90
2023/07/14 14:07:34;;;;;;;4.20;2.88;;;;;;;;;;10463170;28;20032;-89
2023/07/14 14:12:36;;;;;;;4.72;2.70;;;;;;;;;;10473726;28;20072;-86
2023/07/14 14:17:38;;;;;;;4.53;2.83;;;;;;;;;;10475664;28;20132;-89
2023/07/14 14:22:39;;;;;;;4.45;2.80;;;;;;;;;;10468549;28;20120;-86
2023/07/14 14:27:41;;;;;;;6.88;2.90;;;;;;;;;;10452988;28;20052;-85
2023/07/14 14:32:43;;;;;;;5.53;2.83;;;;;;;;;;10470768;28;20081;-89
2023/07/14 14:37:44;;;;;;;4.75;2.83;;;;;;;;;;10474104;28;20021;-89
2023/07/14 14:42:45;;;;;;;4.32;2.50;;;;;;;;;;10469610;28;20045;-87
2023/07/14 14:47:47;;;;;;;6.82;2.88;;;;;;;;;;10469493;28;20037;-90
2023/07/14 14:52:48;;;;;;;5.95;3.10;;;;;;;;;;10468400;28;20032;-87
2023/07/14 14:57:55;;;;;;;6.55;2.95;;;;;;;;;;10476727;28;20031;-85
2023/07/14 15:02:56;;;;;;;4.03;3.10;;;;;;;;;;10474839;28;20387;-89
2023/07/14 15:07:57;;;;;;;3.97;2.72;;;;;;;;;;10468257;28;20025;-86
2023/07/14 15:12:58;;;;;;;4.22;2.85;;;;;;;;;;10468970;28;20164;-89
2023/07/14 15:17:59;;;;;;;4.32;2.65;;;;;;;;;;10480011;28;20069;-86
2023/07/14 15:23:01;;;;;;;5.22;2.67;;;;;;;;;;10506794;28;20399;-85
2023/07/14 15:28:03;;;;;;;4.70;3.50;;;;;;;;;;10491949;28;20040;-87
2023/07/14 15:33:04;;;;;;;3.33;2.72;;;;;;;;;;10466201;28;20032;-90
2023/07/14 15:38:05;;;;;;;6.40;3.10;;;;;;;;;;10465386;28;20040;-89
2023/07/14 15:43:18;;;;;;;5.20;3.15;;;;;;;;;;10464666;28;20025;-87
2023/07/14 15:48:20;;;;;;;4.57;3.00;;;;;;;;;;10465018;28;20494;-87
2023/07/14 15:53:22;;;;;;;4.28;3.03;;;;;;;;;;10465211;28;20120;-86
2023/07/14 15:58:24;;;;;;;4.25;2.65;;;;;;;;;;10465095;28;20021;-87
2023/07/14 16:03:26;;;;;;;5.93;2.95;;;;;;;;;;10465852;28;20021;-89
2023/07/14 16:08:30;;;;;;;5.90;2.55;;;;;;;;;;10468225;28;20031;-87
2023/07/14 16:13:31;;;;;;;5.57;2.40;;;;;;;;;;10492853;28;20073;-89
2023/07/14 16:18:32;;;;;;;7.32;3.60;;;;;;;;;;10464434;28;20044;-89
2023/07/14 16:23:34;;;;;;;4.55;2.40;;;;;;;;;;10464078;28;20029;-87
2023/07/14 16:28:35;;;;;;;5.07;2.58;;;;;;;;;;10463620;28;20029;-89
2023/07/14 16:33:36;;;;;;;4.57;2.50;;;;;;;;;;10469408;28;20029;-89
2023/07/14 16:38:37;;;;;;;3.55;2.30;;;;;;;;;;10491129;28;20558;-89
2023/07/14 16:43:38;;;;;;;4.95;2.47;;;;;;;;;;10494197;28;20025;-87
2023/07/14 16:48:39;;;;;;;5.88;2.53;;;;;;;;;;10488271;28;20499;-89
2023/07/14 16:53:40;;;;;;;4.97;2.70;;;;;;;;;;10489883;28;20020;-87
2023/07/14 16:58:41;;;;;;;4.63;2.33;;;;;;;;;;10500631;28;20029;-88
2023/07/14 17:03:43;;;;;;;6.30;2.35;;;;;;;;;;10501521;28;20021;-87
2023/07/14 17:08:44;;;;;;;5.63;2.63;;;;;;;;;;10499350;28;20025;-87
2023/07/14 17:13:45;;;;;;;5.10;2.60;;;;;;;;;;10482536;28;20021;-88
2023/07/14 17:18:46;;;;;;;3.65;2.38;;;;;;;;;;10464948;28;20119;-87
2023/07/14 17:23:47;;;;;;;3.83;2.42;;;;;;;;;;10470007;28;20024;-89
2023/07/14 17:28:49;;;;;;;3.95;2.50;;;;;;;;;;10462704;28;20025;-89
2023/07/14 17:33:50;;;;;;;4.85;2.78;;;;;;;;;;10461338;28;20032;-87
2023/07/14 17:38:52;;;;;;;2.55;1.98;;;;;;;;;;10463240;28;20029;-86
2023/07/14 17:43:54;;;;;;;5.28;4.38;;;;;;;;;;10461388;28;20544;-89
2023/07/14 17:48:59;;;;;;;4.65;2.80;;;;;;;;;;10462434;28;20141;-87
2023/07/14 17:54:20;;;;;;;2.88;1.92;;;;;;;;;;10466707;28;20079;-87
2023/07/14 17:59:24;;;;;;;6.15;2.90;;;;;;;;;;10460904;28;20029;-87
2023/07/14 18:04:25;;;;;;;5.05;2.60;;;;;;;;;;10457458;22;20037;-81
2023/07/14 18:09:27;;;;;;;8.82;3.60;;;;;;;;;;10401591;28;20029;-80
2023/07/14 18:14:28;;;;;;;4.45;2.80;;;;;;;;;;10397209;28;20026;-80
2023/07/14 18:19:29;;;;;;;5.88;2.83;;;;;;;;;;10401642;28;20086;-81
2023/07/14 18:24:30;;;;;;;6.45;2.95;;;;;;;;;;10401193;28;20026;-80
2023/07/14 18:29:31;;;;;;;7.88;3.80;;;;;;;;;;10395071;28;20122;-81
2023/07/14 18:34:32;;;;;;;3.80;2.58;;;;;;;;;;10400629;28;20022;-81
2023/07/14 18:39:33;;;;;;;5.68;3.70;;;;;;;;;;10402119;28;20033;-80
2023/07/14 18:44:36;;;;;;;5.22;2.90;;;;;;;;;;10398739;28;20435;-82
2023/07/14 18:49:37;;;;;;;4.88;2.58;;;;;;;;;;10396895;28;20026;-82
2023/07/14 18:54:39;;;;;;;3.55;2.40;;;;;;;;;;10404890;28;20026;-82
2023/07/14 18:59:40;;;;;;;6.65;3.20;;;;;;;;;;10408224;28;20083;-81
2023/07/14 19:04:41;;;;;;;3.80;2.20;;;;;;;;;;10412495;28;20041;-81
2023/07/14 19:09:44;;;;;;;3.80;2.75;;;;;;;;;;10410789;28;20134;-82
